KCWF

Chennault International Airport

Lake Charles, Louisiana, USA
METAR KCWF 200045Z 11005KT 10SM SKC 07/04 A3021
Observed Flight Rules
Jan-20 @ 00:45 UTC (31 minutes ago) Visual Flight Rules
Wind Visibility Clouds
110° at 5 knots 10 miles
  • Clear skies
Temperatures Readings
Current 7°C / 45°F
Dewpoint 4°C / 39°F
Humidity 81%
Altimeter 30.21" Hg
Pressure 1023 hPa
Elevation 4
METAR KCWF 200045Z 11005KT 10SM SKC 07/04 A3021
Observed Flight Rules
Jan-20 @ 00:45 UTC
(31 minutes ago)
VFR
Wind Visibility
110° at 5 knots 10 miles
Clouds
  • Clear skies
Temperature Dewpoint
7°C / 45°F 4°C / 39°F
Humidity Altimeter Pressure
81% 30.21" Hg 1023 hPa